Time;durP1;ratioP1;P1;durP2;ratioP2;P2;SDS_P1;SDS_P2;PMS_P1;PMS_P2;Temp;Humidity;BMP_temperature;BMP_pressure;BME280_temperature;BME280_humidity;BME280_pressure;Samples;Min_cycle;Max_cycle;Signal;HPM_P1;HPM_P2
2021/06/24 00:01:17;;;;;;;5.47;3.40;;;;;;;18.03;42.85;101627.94;3576177;40;20358;-73
2021/06/24 00:04:05;;;;;;;5.90;3.28;;;;;;;18.03;42.67;101626.00;3576674;40;20049;-73
2021/06/24 00:06:54;;;;;;;5.38;3.72;;;;;;;18.01;43.06;101624.47;3569957;40;20048;-73
2021/06/24 00:09:42;;;;;;;4.53;3.28;;;;;;;18.01;42.74;101627.22;3576660;40;20467;-74
2021/06/24 00:12:29;;;;;;;5.65;3.22;;;;;;;18.00;43.18;101622.72;3577738;40;20060;-73
2021/06/24 00:15:19;;;;;;;4.65;3.30;;;;;;;18.01;42.77;101621.69;3577208;40;20050;-74
2021/06/24 00:18:07;;;;;;;4.35;3.10;;;;;;;17.99;42.57;101621.84;3575541;40;20061;-74
2021/06/24 00:20:45;;;;;;;5.00;3.63;;;;;;;18.00;42.99;101633.78;3569118;40;20061;-73
2021/06/24 00:23:15;;;;;;;5.15;3.33;;;;;;;17.99;43.21;101618.22;3578731;40;20081;-73
2021/06/24 00:25:43;;;;;;;5.32;3.25;;;;;;;17.97;43.06;101620.25;3578772;40;20037;-73
2021/06/24 00:28:15;;;;;;;4.35;3.05;;;;;;;17.95;42.69;101625.97;3578518;40;20055;-73
2021/06/24 00:30:49;;;;;;;6.07;3.38;;;;;;;17.97;42.58;101632.22;3579239;40;20425;-74
2021/06/24 00:33:22;;;;;;;3.95;3.00;;;;;;;17.94;43.20;101626.16;3587307;40;20049;-73
2021/06/24 00:35:52;;;;;;;5.65;3.80;;;;;;;17.94;43.05;101626.16;3589095;40;20055;-73
2021/06/24 00:38:34;;;;;;;4.57;3.40;;;;;;;17.93;42.77;101629.94;3580595;40;20112;-73
2021/06/24 00:41:09;;;;;;;4.15;3.20;;;;;;;17.93;43.13;101624.41;3579420;40;20053;-73
2021/06/24 00:43:53;;;;;;;5.03;3.40;;;;;;;17.92;43.20;101623.53;3588831;40;20115;-73
2021/06/24 00:46:43;;;;;;;5.70;3.33;;;;;;;17.92;43.14;101626.31;3569058;40;20394;-73
2021/06/24 00:49:31;;;;;;;6.75;3.40;;;;;;;17.90;43.46;101624.72;3569188;40;20387;-73
2021/06/24 00:52:19;;;;;;;5.07;3.25;;;;;;;17.90;42.78;101624.72;3571141;40;20048;-73
2021/06/24 00:55:09;;;;;;;4.60;3.10;;;;;;;17.90;43.01;101621.94;3570451;40;20049;-73
2021/06/24 00:57:57;;;;;;;5.13;3.25;;;;;;;17.89;43.36;101623.84;3571526;40;20053;-73
2021/06/24 01:00:47;;;;;;;4.93;3.15;;;;;;;17.90;43.39;101616.41;3576981;40;20041;-73
2021/06/24 01:03:19;;;;;;;4.15;3.13;;;;;;;17.88;43.51;101616.56;3584967;40;20044;-73
2021/06/24 01:05:55;;;;;;;5.18;3.22;;;;;;;17.87;42.98;101617.59;3571827;40;20064;-73
2021/06/24 01:08:43;;;;;;;4.75;3.40;;;;;;;17.88;43.37;101612.94;3581497;40;20303;-73
2021/06/24 01:11:38;;;;;;;4.75;3.10;;;;;;;17.87;43.09;101611.19;3571201;40;20056;-73
2021/06/24 01:14:26;;;;;;;4.70;3.05;;;;;;;17.86;43.01;101617.78;3577708;40;20041;-73
2021/06/24 01:17:14;;;;;;;5.05;3.20;;;;;;;17.85;43.07;101608.59;3576192;40;20067;-73
2021/06/24 01:20:06;;;;;;;5.75;3.58;;;;;;;17.86;43.67;101604.81;3572114;40;20052;-73
2021/06/24 01:22:55;;;;;;;;;;;;;;;17.57;44.13;101605.09;3579481;40;20126;-73
2021/06/24 01:25:45;;;;;;;5.28;3.17;;;;;;;17.83;43.67;101607.03;3571019;40;19936;-74
2021/06/24 01:28:33;;;;;;;4.97;3.20;;;;;;;17.84;43.41;101606.00;3576050;40;20049;-73
2021/06/24 01:31:22;;;;;;;5.43;3.53;;;;;;;17.84;43.07;101608.78;3580736;40;20060;-73
2021/06/24 01:34:13;;;;;;;5.13;3.65;;;;;;;17.83;43.52;101610.66;3582263;40;20060;-73
2021/06/24 01:37:02;;;;;;;4.70;3.47;;;;;;;17.79;43.41;101600.94;3578723;40;20060;-73
2021/06/24 01:39:51;;;;;;;5.32;3.58;;;;;;;17.79;43.61;101605.59;3571980;40;20052;-73
2021/06/24 01:42:41;;;;;;;5.78;3.65;;;;;;;17.78;43.66;101599.22;3571135;40;20057;-73
2021/06/24 01:45:29;;;;;;;5.55;3.72;;;;;;;17.75;43.03;101596.75;3578385;40;20138;-73
2021/06/24 01:48:18;;;;;;;5.53;3.47;;;;;;;17.73;43.48;101590.53;3580683;40;20359;-73
2021/06/24 01:51:06;;;;;;;5.43;3.88;;;;;;;17.72;43.17;101591.53;3588896;40;20072;-73
2021/06/24 01:53:54;;;;;;;6.18;3.65;;;;;;;17.70;43.70;101586.16;3583775;40;20061;-73
2021/06/24 01:56:44;;;;;;;4.93;3.75;;;;;;;17.67;43.26;101583.75;3578796;40;20060;-73
2021/06/24 01:59:34;;;;;;;5.85;3.30;;;;;;;17.70;43.67;101588.94;3571660;40;20287;-73
2021/06/24 02:02:26;;;;;;;5.50;3.47;;;;;;;17.68;43.29;101579.06;3571693;40;20048;-74
2021/06/24 02:05:14;;;;;;;6.05;3.95;;;;;;;17.67;43.77;101585.63;3579364;40;20130;-73
2021/06/24 02:08:02;;;;;;;5.05;3.80;;;;;;;17.67;43.90;101589.28;3579011;40;20063;-73
2021/06/24 02:11:05;;;;;;;;;;;;;;;17.38;44.58;101585.03;3568636;40;20077;-73
2021/06/24 02:13:56;;;;;;;4.95;3.55;;;;;;;17.63;43.53;101584.22;3571297;40;19945;-73
2021/06/24 02:16:46;;;;;;;5.22;3.47;;;;;;;17.66;43.85;101584.78;3567787;40;20685;-73
2021/06/24 02:19:34;;;;;;;6.20;3.80;;;;;;;17.65;43.32;101585.78;3566754;40;20084;-73
2021/06/24 02:22:40;;;;;;;5.22;3.45;;;;;;;17.63;44.05;101574.00;3575705;40;20073;-73
2021/06/24 02:25:14;;;;;;;5.82;3.55;;;;;;;17.63;43.88;101576.78;3577850;40;20045;-74
2021/06/24 02:28:11;;;;;;;6.05;3.75;;;;;;;17.64;43.40;101572.13;3567321;40;20056;-73
2021/06/24 02:30:50;;;;;;;4.82;3.63;;;;;;;17.65;43.92;101568.31;3564907;40;20052;-73
2021/06/24 02:33:21;;;;;;;7.63;4.47;;;;;;;17.66;43.82;101565.41;3562824;40;20053;-73
2021/06/24 02:35:58;;;;;;;4.90;3.97;;;;;;;17.66;43.57;101561.75;3558950;40;20228;-73
2021/06/24 02:38:35;;;;;;;7.18;4.07;;;;;;;17.63;43.49;101562.94;3566462;40;20052;-73
2021/06/24 02:41:04;;;;;;;4.95;3.60;;;;;;;17.63;43.98;101560.19;3578432;40;20053;-73
2021/06/24 02:43:35;;;;;;;5.65;3.70;;;;;;;17.63;43.63;101560.19;3568590;40;20057;-73
2021/06/24 02:46:09;;;;;;;5.25;3.75;;;;;;;17.63;43.65;101553.78;3569285;40;20058;-73
2021/06/24 02:48:55;;;;;;;6.50;4.22;;;;;;;17.63;44.16;101564.84;3560884;40;20562;-73
2021/06/24 02:51:39;;;;;;;6.78;4.72;;;;;;;17.60;43.56;101559.66;3555733;40;20069;-73
2021/06/24 02:54:33;;;;;;;5.80;4.13;;;;;;;17.58;43.61;101554.28;3567864;40;20057;-73
2021/06/24 02:57:15;;;;;;;6.68;4.32;;;;;;;17.57;44.11;101549.75;3560995;40;20057;-73
2021/06/24 03:00:23;;;;;;;5.50;3.70;;;;;;;17.55;44.36;101549.06;3577068;40;20126;-73
2021/06/24 03:03:29;;;;;;;6.20;3.97;;;;;;;17.53;43.97;101551.13;3567018;40;20131;-73
2021/06/24 03:06:33;;;;;;;6.35;4.10;;;;;;;17.54;43.84;101554.75;3568967;40;20053;-73
2021/06/24 03:09:23;;;;;;;5.18;3.80;;;;;;;17.50;44.34;101562.50;3562154;40;20317;-73
2021/06/24 03:12:12;;;;;;;5.45;3.90;;;;;;;17.51;43.78;101560.63;3569322;40;20044;-73
2021/06/24 03:15:05;;;;;;;6.28;4.13;;;;;;;17.52;44.13;101567.88;3570972;40;20386;-73
2021/06/24 03:17:53;;;;;;;6.05;3.85;;;;;;;17.50;43.95;101562.50;3577981;40;20049;-74
2021/06/24 03:20:42;;;;;;;5.07;4.22;;;;;;;17.51;44.02;101566.16;3573634;40;20135;-73
2021/06/24 03:23:32;;;;;;;6.20;4.45;;;;;;;17.52;44.32;101556.81;3576545;40;20077;-73
2021/06/24 03:26:20;;;;;;;7.50;4.13;;;;;;;17.51;44.57;101557.84;3569901;40;20029;-73
2021/06/24 03:29:19;;;;;;;6.70;4.70;;;;;;;17.52;44.13;101566.00;3570358;40;20060;-73
2021/06/24 03:32:11;;;;;;;6.03;4.17;;;;;;;17.50;44.37;101556.09;3588428;40;20052;-73
2021/06/24 03:34:58;;;;;;;6.20;3.95;;;;;;;17.51;44.58;101555.94;3577919;40;20275;-73
2021/06/24 03:37:49;;;;;;;8.23;4.65;;;;;;;17.52;44.24;101559.59;3576961;40;20402;-73
2021/06/24 03:40:38;;;;;;;7.05;4.13;;;;;;;17.54;44.47;101563.91;3582542;40;20395;-73
2021/06/24 03:43:26;;;;;;;6.22;4.05;;;;;;;17.53;44.67;101556.66;3580573;40;20060;-73
2021/06/24 03:46:40;;;;;;;6.10;4.22;;;;;;;17.51;44.72;101563.38;3570861;40;20117;-74
2021/06/24 03:49:29;;;;;;;7.55;4.63;;;;;;;17.51;44.64;101555.94;3570210;40;20045;-73
2021/06/24 03:52:17;;;;;;;5.30;4.25;;;;;;;17.52;44.03;101548.53;3570146;40;20048;-73
2021/06/24 03:55:07;;;;;;;7.05;4.55;;;;;;;17.52;44.58;101549.38;3571956;40;20075;-73
2021/06/24 03:58:18;;;;;;;6.40;4.28;;;;;;;17.52;44.53;101548.53;3581826;40;20061;-73
2021/06/24 04:01:07;;;;;;;6.80;4.45;;;;;;;17.50;44.14;101539.50;3578661;40;20057;-73
2021/06/24 04:03:57;;;;;;;5.80;4.60;;;;;;;17.50;44.46;101534.84;3579593;40;20395;-73
2021/06/24 04:06:52;;;;;;;6.63;4.40;;;;;;;17.51;44.79;101541.25;3577959;40;20044;-73
2021/06/24 04:09:40;;;;;;;7.60;4.80;;;;;;;17.52;44.70;101540.22;3572235;40;20052;-73
2021/06/24 04:12:28;;;;;;;6.75;4.47;;;;;;;17.53;44.67;101539.19;3574923;40;20043;-73
2021/06/24 04:15:24;;;;;;;7.28;4.68;;;;;;;17.54;44.63;101538.13;3578884;40;20305;-75
2021/06/24 04:18:13;;;;;;;7.80;5.05;;;;;;;17.51;44.74;101536.59;3582208;40;20075;-74
2021/06/24 04:21:06;;;;;;;6.43;4.55;;;;;;;17.50;44.40;101550.56;3579669;40;20041;-73
2021/06/24 04:23:54;;;;;;;6.22;4.32;;;;;;;17.52;44.70;101543.00;3574507;40;20413;-73
2021/06/24 04:26:23;;;;;;;7.18;5.28;;;;;;;17.51;44.10;101544.00;3579443;40;20380;-73
2021/06/24 04:28:51;;;;;;;7.63;5.10;;;;;;;17.50;44.58;101548.69;3570491;40;20056;-73
2021/06/24 04:31:23;;;;;;;8.18;5.07;;;;;;;17.52;44.14;101552.16;3570928;40;20291;-73
2021/06/24 04:33:59;;;;;;;6.82;4.88;;;;;;;17.48;44.22;101545.19;3571249;40;20053;-73
2021/06/24 04:36:46;;;;;;;8.43;5.25;;;;;;;17.46;44.75;101538.06;3574290;40;20063;-72
2021/06/24 04:39:21;;;;;;;6.25;4.85;;;;;;;17.45;44.25;101536.38;3578716;40;20041;-72
2021/06/24 04:42:01;;;;;;;8.00;5.03;;;;;;;17.44;44.82;101534.63;3574981;40;20064;-73
2021/06/24 04:44:42;;;;;;;7.90;5.68;;;;;;;17.40;44.28;101531.31;3571707;40;20107;-73
2021/06/24 04:47:17;;;;;;;8.40;5.40;;;;;;;17.42;44.74;101529.25;3579345;40;20348;-72
2021/06/24 04:49:54;;;;;;;7.20;5.50;;;;;;;17.40;44.99;101535.97;3578541;40;20045;-73
2021/06/24 04:53:10;;;;;;;9.60;4.75;;;;;;;17.37;45.04;101528.88;3570061;40;20392;-73
2021/06/24 04:56:09;;;;;;;7.93;5.45;;;;;;;17.38;44.61;101526.94;3568904;40;20053;-73
2021/06/24 04:58:40;;;;;;;10.50;5.78;;;;;;;17.38;45.12;101525.06;3569830;40;20421;-73
2021/06/24 05:01:41;;;;;;;8.23;5.05;;;;;;;17.37;45.28;101523.34;3571651;40;20055;-72
2021/06/24 05:04:55;;;;;;;6.60;4.90;;;;;;;17.39;44.83;101526.78;3572039;40;20048;-73
2021/06/24 05:07:44;;;;;;;7.55;5.30;;;;;;;17.39;45.04;101523.16;3586258;40;20626;-73
2021/06/24 05:10:32;;;;;;;7.57;4.65;;;;;;;17.39;45.36;101529.56;3588720;40;20137;-73
2021/06/24 05:13:20;;;;;;;6.72;5.20;;;;;;;17.39;45.34;101524.03;3577528;40;20499;-72
2021/06/24 05:16:08;;;;;;;8.73;5.63;;;;;;;17.41;45.39;101521.97;3586348;40;20307;-73
2021/06/24 05:18:44;;;;;;;6.38;5.13;;;;;;;17.43;44.70;101522.69;3579071;40;20146;-73
2021/06/24 05:21:33;;;;;;;9.88;6.30;;;;;;;17.45;45.42;101525.31;3580441;40;20314;-73
2021/06/24 05:24:24;;;;;;;7.70;5.03;;;;;;;17.43;45.25;101531.00;3577370;40;20122;-73
2021/06/24 05:27:12;;;;;;;8.45;5.75;;;;;;;17.43;44.94;101531.00;3572158;40;20033;-73
2021/06/24 05:30:00;;;;;;;7.00;5.28;;;;;;;17.44;45.20;101529.09;3578425;40;20065;-73
2021/06/24 05:32:48;;;;;;;8.98;5.15;;;;;;;17.44;45.05;101535.50;3572785;40;20452;-73
2021/06/24 05:35:36;;;;;;;7.07;5.60;;;;;;;17.46;45.32;101544.47;3578840;40;20068;-73
2021/06/24 05:38:26;;;;;;;8.48;5.65;;;;;;;17.49;44.83;101540.53;3586920;40;20052;-73
2021/06/24 05:41:14;;;;;;;7.97;5.53;;;;;;;17.47;44.98;101543.44;3587716;40;20063;-73
2021/06/24 05:44:02;;;;;;;8.27;5.32;;;;;;;17.48;45.28;101547.97;3568821;40;20085;-73
2021/06/24 05:46:50;;;;;;;7.22;4.65;;;;;;;17.50;45.13;101548.69;3571102;40;20063;-73
2021/06/24 05:49:39;;;;;;;7.32;4.85;;;;;;;17.51;45.08;101544.00;3588467;40;20112;-73
2021/06/24 05:52:27;;;;;;;7.43;5.18;;;;;;;17.53;45.17;101539.19;3578321;40;20049;-72
2021/06/24 05:55:17;;;;;;;7.53;5.47;;;;;;;17.57;45.00;101546.13;3578891;40;20409;-74
2021/06/24 05:58:05;;;;;;;7.28;5.18;;;;;;;17.58;45.26;101542.34;3579152;40;20060;-73
2021/06/24 06:00:55;;;;;;;8.85;5.32;;;;;;;17.60;45.11;101546.69;3578604;40;20043;-75
2021/06/24 06:03:43;;;;;;;7.78;5.05;;;;;;;17.60;45.67;101541.16;3586462;40;20044;-74
2021/06/24 06:06:31;;;;;;;7.20;4.88;;;;;;;17.63;45.66;101537.16;3588331;40;20044;-73
2021/06/24 06:09:19;;;;;;;7.63;5.25;;;;;;;17.66;45.62;101534.09;3579038;40;20056;-75
2021/06/24 06:12:11;;;;;;;8.43;5.45;;;;;;;17.71;45.31;101531.69;3578751;40;20056;-74
2021/06/24 06:14:59;;;;;;;9.10;5.57;;;;;;;17.72;45.58;101529.78;3581902;40;20056;-73
2021/06/24 06:17:47;;;;;;;6.82;4.68;;;;;;;17.74;45.57;101531.38;3585074;40;20052;-73
2021/06/24 06:20:36;;;;;;;7.57;4.63;;;;;;;17.75;45.25;101522.06;3578554;40;20071;-74
2021/06/24 06:23:28;;;;;;;7.93;4.47;;;;;;;17.79;45.00;101526.22;3583718;40;20060;-75
2021/06/24 06:26:16;;;;;;;7.03;5.22;;;;;;;17.79;44.82;101528.97;3588544;40;20364;-73
2021/06/24 06:29:06;;;;;;;8.15;5.10;;;;;;;17.83;45.29;101524.88;3588598;40;20104;-72
2021/06/24 06:31:54;;;;;;;8.45;5.38;;;;;;;17.84;45.21;101529.38;3578572;40;20049;-73
2021/06/24 06:34:22;;;;;;;7.43;5.07;;;;;;;17.86;45.09;101530.09;3578514;40;20045;-73
2021/06/24 06:36:50;;;;;;;8.63;5.72;;;;;;;17.87;44.82;101529.03;3578477;40;20583;-74
2021/06/24 06:39:18;;;;;;;8.52;5.60;;;;;;;17.88;45.00;101529.91;3584957;40;20056;-73
2021/06/24 06:41:47;;;;;;;7.30;5.07;;;;;;;17.88;45.29;101521.59;3588695;40;20060;-74
2021/06/24 06:44:17;;;;;;;7.38;5.72;;;;;;;17.89;45.33;101524.19;3581580;40;20057;-74
2021/06/24 06:46:45;;;;;;;8.23;5.75;;;;;;;17.88;44.86;101524.34;3569255;40;20387;-75
2021/06/24 06:49:29;;;;;;;8.50;5.45;;;;;;;17.90;45.30;101528.72;3579166;40;20052;-75
2021/06/24 06:52:03;;;;;;;7.68;5.13;;;;;;;17.86;44.57;101530.09;3578477;40;20053;-75
2021/06/24 06:54:36;;;;;;;8.02;5.40;;;;;;;17.84;45.15;101526.59;3586522;40;20374;-74
2021/06/24 06:57:24;;;;;;;8.75;5.57;;;;;;;17.84;44.90;101529.38;3586893;40;20139;-73
2021/06/24 07:00:00;;;;;;;9.70;5.97;;;;;;;17.86;45.05;101529.22;3579232;40;20100;-74
2021/06/24 07:02:37;;;;;;;10.95;6.38;;;;;;;17.83;45.14;101532.31;3566594;40;20055;-74
2021/06/24 07:05:20;;;;;;;9.23;5.65;;;;;;;17.83;45.24;101532.31;3576378;40;20064;-74
2021/06/24 07:08:08;;;;;;;7.57;5.05;;;;;;;17.81;45.36;101532.47;3576806;40;20441;-74
2021/06/24 07:10:58;;;;;;;7.35;5.25;;;;;;;17.81;45.00;101526.06;3577767;40;20045;-74
2021/06/24 07:13:46;;;;;;;6.65;5.00;;;;;;;17.83;44.89;101526.75;3570253;40;20044;-74
2021/06/24 07:16:35;;;;;;;8.57;5.60;;;;;;;17.84;44.83;101526.59;3577595;40;20045;-73
2021/06/24 07:19:24;;;;;;;8.60;6.00;;;;;;;17.84;45.42;101528.50;3576658;40;20097;-73
2021/06/24 07:22:12;;;;;;;8.32;5.88;;;;;;;17.82;44.98;101525.91;3578238;40;20055;-73
2021/06/24 07:24:53;;;;;;;6.90;5.28;;;;;;;17.84;45.48;101525.75;3563942;40;20041;-73
2021/06/24 07:27:41;;;;;;;6.78;4.88;;;;;;;17.83;45.12;101524.88;3566785;40;20327;-73
2021/06/24 07:30:29;;;;;;;8.15;5.85;;;;;;;17.85;45.39;101520.03;3576860;40;20387;-73
2021/06/24 07:33:23;;;;;;;7.38;5.32;;;;;;;17.87;45.69;101517.94;3576017;40;20064;-73
2021/06/24 07:36:41;;;;;;;8.20;6.00;;;;;;;17.86;45.77;101523.69;3583064;40;20394;-73
2021/06/24 07:39:31;;;;;;;7.43;5.80;;;;;;;17.88;45.28;101518.81;3568554;40;20061;-73
2021/06/24 07:42:20;;;;;;;9.48;6.47;;;;;;;17.90;45.78;101522.31;3566563;40;20049;-73
2021/06/24 07:45:10;;;;;;;8.93;6.50;;;;;;;17.91;45.13;101527.69;3563348;40;20413;-73
2021/06/24 07:47:59;;;;;;;9.40;6.75;;;;;;;17.91;45.49;101526.81;3567367;40;20060;-73
2021/06/24 07:50:49;;;;;;;10.35;6.85;;;;;;;17.94;45.20;101526.50;3561601;40;20378;-73
2021/06/24 07:53:42;;;;;;;9.20;6.72;;;;;;;17.92;45.67;101526.66;3567681;40;20077;-73
2021/06/24 07:56:30;;;;;;;9.50;6.93;;;;;;;17.91;45.37;101527.69;3557404;40;20062;-73
2021/06/24 07:59:14;;;;;;;11.55;6.95;;;;;;;17.92;45.87;101523.88;3567215;40;20049;-73
2021/06/24 08:02:02;;;;;;;9.07;6.65;;;;;;;17.96;45.23;101518.88;3563357;40;20337;-73
2021/06/24 08:04:50;;;;;;;9.20;6.63;;;;;;;17.98;45.52;101525.13;3565834;40;20089;-73
2021/06/24 08:07:44;;;;;;;10.07;7.47;;;;;;;18.02;45.36;101532.94;3567053;40;20061;-75
2021/06/24 08:10:32;;;;;;;9.63;6.90;;;;;;;18.02;45.96;101524.66;3574106;40;20131;-73
2021/06/24 08:13:21;;;;;;;10.70;7.18;;;;;;;18.04;45.87;101519.81;3579144;40;20290;-73
2021/06/24 08:16:09;;;;;;;9.15;6.50;;;;;;;18.10;45.96;101521.06;3585747;40;20036;-73
2021/06/24 08:18:57;;;;;;;11.43;7.13;;;;;;;18.14;46.00;101507.75;3588204;40;20089;-73
2021/06/24 08:21:46;;;;;;;9.63;6.22;;;;;;;18.20;45.93;101515.38;3568807;40;20115;-73
2021/06/24 08:24:35;;;;;;;9.07;6.80;;;;;;;18.28;46.10;101513.50;3570822;40;20044;-73
2021/06/24 08:27:23;;;;;;;9.50;6.57;;;;;;;18.36;46.77;101508.00;3579255;40;20401;-73
2021/06/24 08:30:13;;;;;;;9.73;7.70;;;;;;;18.49;46.39;101509.44;3578019;40;20061;-73
2021/06/24 08:33:02;;;;;;;10.38;7.53;;;;;;;18.60;46.48;101509.16;3578247;40;20033;-73
2021/06/24 08:35:51;;;;;;;10.57;7.60;;;;;;;18.73;46.64;101512.28;3574680;40;20052;-73
2021/06/24 08:38:40;;;;;;;9.40;6.60;;;;;;;18.85;46.27;101507.31;3570300;40;20321;-73
2021/06/24 08:41:27;;;;;;;8.20;6.68;;;;;;;19.00;46.16;101509.25;3572528;40;20430;-73
2021/06/24 08:44:17;;;;;;;10.25;6.97;;;;;;;19.09;46.30;101501.81;3578072;40;20453;-73
2021/06/24 08:47:05;;;;;;;8.65;6.97;;;;;;;19.22;45.82;101509.59;3567634;40;20053;-73
2021/06/24 08:49:56;;;;;;;10.77;6.97;;;;;;;19.34;46.12;101516.53;3570162;40;20056;-73
2021/06/24 08:52:47;;;;;;;9.02;6.10;;;;;;;19.41;45.94;101517.56;3579274;40;20064;-73
2021/06/24 08:55:42;;;;;;;9.88;6.78;;;;;;;19.50;45.96;101509.09;3579059;40;20044;-74
2021/06/24 08:58:33;;;;;;;9.38;6.72;;;;;;;19.61;45.46;101512.53;3578906;40;20126;-74
2021/06/24 09:01:49;;;;;;;8.75;6.63;;;;;;;19.68;44.82;101513.59;3581635;40;20068;-75
2021/06/24 09:04:40;;;;;;;10.55;7.90;;;;;;;19.75;44.68;101511.84;3578993;40;20056;-74
2021/06/24 09:07:28;;;;;;;8.95;6.90;;;;;;;19.79;44.83;101511.28;3571261;40;20049;-74
2021/06/24 09:10:16;;;;;;;10.15;7.88;;;;;;;19.83;44.25;101512.69;3577677;40;20343;-75
2021/06/24 09:13:05;;;;;;;10.30;7.95;;;;;;;19.85;44.43;101509.69;3579553;40;20111;-74
2021/06/24 09:15:54;;;;;;;10.57;7.75;;;;;;;19.90;44.25;101512.81;3582799;40;20052;-74
2021/06/24 09:18:43;;;;;;;10.07;7.72;;;;;;;19.90;43.65;101504.50;3589341;40;20044;-74
2021/06/24 09:21:31;;;;;;;9.02;7.63;;;;;;;19.91;44.06;101509.00;3583361;40;20044;-74
2021/06/24 09:24:28;;;;;;;8.80;7.18;;;;;;;19.93;43.32;101512.44;3578937;40;20089;-74
2021/06/24 09:27:29;;;;;;;9.88;7.70;;;;;;;19.89;42.95;101509.19;3572454;40;20052;-74
2021/06/24 09:30:18;;;;;;;10.57;7.35;;;;;;;19.85;43.54;101513.34;3579004;40;20063;-75
2021/06/24 09:33:13;;;;;;;8.60;7.20;;;;;;;19.85;42.59;101509.69;3578767;40;20048;-74
2021/06/24 09:36:01;;;;;;;8.00;6.35;;;;;;;19.79;43.00;101513.19;3578850;40;20045;-78
2021/06/24 09:38:52;;;;;;;9.88;6.95;;;;;;;19.79;42.78;101514.06;3579407;40;20068;-74
2021/06/24 09:41:57;;;;;;;8.65;6.55;;;;;;;19.75;43.08;101511.84;3579413;40;20033;-74
2021/06/24 09:44:46;;;;;;;9.57;7.60;;;;;;;19.69;43.32;101513.38;3578979;40;20426;-74
2021/06/24 09:47:34;;;;;;;9.57;7.18;;;;;;;19.64;42.74;101512.19;3576257;40;20084;-74
2021/06/24 09:50:24;;;;;;;7.55;6.53;;;;;;;19.62;42.80;101511.50;3578305;40;20064;-74
2021/06/24 09:53:14;;;;;;;7.93;6.38;;;;;;;19.56;43.12;101513.94;3568212;40;20459;-74
2021/06/24 09:56:23;;;;;;;11.02;6.88;;;;;;;19.54;42.77;101517.91;3569842;40;21482;-74
2021/06/24 09:59:13;;;;;;;8.13;6.38;;;;;;;19.50;42.93;101511.88;3578600;40;20052;-74
2021/06/24 10:02:10;;;;;;;10.48;6.68;;;;;;;19.52;43.21;101508.91;3578538;40;20053;-74
2021/06/24 10:05:00;;;;;;;7.38;5.90;;;;;;;19.49;43.40;101510.09;3582032;40;20048;-74
2021/06/24 10:07:49;;;;;;;13.05;7.80;;;;;;;19.49;42.82;101506.47;3580645;40;20057;-74
2021/06/24 10:10:38;;;;;;;9.20;6.75;;;;;;;19.48;43.30;101508.38;3578617;40;20321;-74
2021/06/24 10:13:29;;;;;;;10.43;7.43;;;;;;;19.47;42.94;101511.31;3578886;40;20060;-74
2021/06/24 10:16:18;;;;;;;11.32;8.38;;;;;;;19.47;43.49;101512.19;3586107;40;20052;-74
2021/06/24 10:19:06;;;;;;;8.60;7.30;;;;;;;19.49;42.92;101503.69;3578561;40;20309;-74
2021/06/24 10:21:59;;;;;;;9.68;6.93;;;;;;;19.53;42.97;101510.63;3573654;40;20133;-74
2021/06/24 10:24:31;;;;;;;;;;;;;;;19.25;43.53;101509.25;3579352;40;20052;-74
2021/06/24 10:27:04;;;;;;;10.98;7.00;;;;;;;19.52;43.14;101507.00;3578615;40;20017;-74
2021/06/24 10:29:42;;;;;;;8.65;7.18;;;;;;;19.61;43.11;101502.28;3561730;40;20114;-74
2021/06/24 10:32:28;;;;;;;10.15;7.93;;;;;;;19.62;43.11;101504.03;3578679;40;20071;-74
2021/06/24 10:34:59;;;;;;;8.13;6.90;;;;;;;19.65;42.90;101512.00;3574463;40;20410;-73
2021/06/24 10:37:28;;;;;;;9.95;7.20;;;;;;;19.68;42.99;101499.72;3582663;40;20096;-73
2021/06/24 10:39:59;;;;;;;10.05;7.45;;;;;;;19.73;43.01;101500.03;3588504;40;20424;-74
2021/06/24 10:42:32;;;;;;;;;;;;;;;19.45;43.50;101502.28;3573053;40;20164;-74
2021/06/24 10:45:01;;;;;;;11.70;7.43;;;;;;;19.75;42.95;101501.59;3577850;40;19939;-74
2021/06/24 10:47:38;;;;;;;9.48;6.95;;;;;;;19.83;42.83;101497.94;3577320;40;20104;-74
2021/06/24 10:50:37;;;;;;;9.50;7.50;;;;;;;19.83;42.08;101501.56;3577779;40;20115;-74
2021/06/24 10:53:46;;;;;;;8.30;6.57;;;;;;;19.89;43.16;101497.22;3569262;40;20053;-74
2021/06/24 10:56:30;;;;;;;11.02;7.13;;;;;;;19.97;42.87;101490.75;3568845;40;20386;-74
2021/06/24 10:59:00;;;;;;;9.57;7.57;;;;;;;20.01;43.20;101492.16;3578231;40;20045;-74
2021/06/24 11:01:40;;;;;;;12.20;7.88;;;;;;;20.08;42.40;101490.38;3578392;40;20146;-74
2021/06/24 11:04:26;;;;;;;9.98;7.72;;;;;;;20.09;42.75;101481.84;3578302;40;20040;-72
2021/06/24 11:06:55;;;;;;;9.57;7.72;;;;;;;20.14;42.23;101484.09;3558952;40;20061;-73
2021/06/24 11:09:24;;;;;;;11.32;7.80;;;;;;;20.16;42.50;101490.34;3578307;40;20052;-73
2021/06/24 11:11:54;;;;;;;9.82;6.80;;;;;;;20.21;41.51;101485.13;3578202;40;20317;-73
2021/06/24 11:15:06;;;;;;;8.80;6.55;;;;;;;20.23;41.37;101481.16;3568348;40;20131;-73
2021/06/24 11:17:49;;;;;;;8.50;6.15;;;;;;;20.27;41.29;101481.63;3577195;40;20412;-72
2021/06/24 11:20:20;;;;;;;11.27;6.97;;;;;;;20.30;42.23;101475.72;3577956;40;20064;-72
2021/06/24 11:22:51;;;;;;;9.07;7.18;;;;;;;20.35;42.14;101484.38;3574309;40;20061;-72
2021/06/24 11:25:20;;;;;;;8.43;5.00;;;;;;;20.39;41.99;101482.97;3568891;40;20745;-72
2021/06/24 11:27:50;;;;;;;9.88;6.10;;;;;;;20.45;41.61;101486.94;3571305;40;20048;-71
2021/06/24 11:31:13;;;;;;;9.77;6.13;;;;;;;20.48;41.74;101475.47;3588165;40;20053;-71
2021/06/24 11:33:47;;;;;;;7.32;5.78;;;;;;;20.50;41.41;101487.25;3540899;40;20062;-72
2021/06/24 11:36:19;;;;;;;8.55;5.90;;;;;;;20.56;41.68;101489.31;3536366;40;20039;-72
2021/06/24 11:38:48;;;;;;;9.50;6.45;;;;;;;20.58;41.55;101490.84;3564679;40;20397;-71
2021/06/24 11:41:17;;;;;;;7.38;6.05;;;;;;;20.62;41.11;101491.34;3582867;40;20056;-71
2021/06/24 11:44:02;;;;;;;8.32;5.15;;;;;;;20.65;40.46;101483.53;3583551;40;20081;-71
2021/06/24 11:46:33;;;;;;;6.82;5.32;;;;;;;20.66;41.00;101479.69;3587922;40;20071;-72
2021/06/24 11:49:13;;;;;;;7.97;6.28;;;;;;;20.67;40.57;101488.88;3582088;40;20041;-72
2021/06/24 12:00:46;;;;;;;7.78;6.50;;;;;;;20.64;40.17;101486.47;3567979;40;20056;-71
2021/06/24 12:03:19;;;;;;;7.80;6.28;;;;;;;20.60;40.19;101482.31;3571791;40;20078;-72
2021/06/24 12:05:54;;;;;;;7.37;5.63;;;;;;;20.58;40.06;101485.28;3587847;40;20393;-71
2021/06/24 12:08:24;;;;;;;9.27;5.80;;;;;;;20.56;40.61;101479.06;3585798;40;20117;-71
2021/06/24 12:11:04;;;;;;;7.72;5.30;;;;;;;20.55;40.30;101477.31;3577754;40;20061;-71
2021/06/24 12:13:34;;;;;;;8.23;5.88;;;;;;;20.55;40.04;101491.22;3577586;40;20053;-71
2021/06/24 12:16:04;;;;;;;8.05;6.40;;;;;;;20.55;40.06;101482.88;3585316;40;20044;-71
2021/06/24 12:18:37;;;;;;;9.45;6.78;;;;;;;20.55;39.64;101482.88;3587416;40;20134;-71
2021/06/24 12:21:08;;;;;;;8.70;6.53;;;;;;;20.54;40.13;101483.06;3578904;40;20375;-72
2021/06/24 12:23:42;;;;;;;10.52;7.18;;;;;;;20.54;39.75;101483.94;3570747;40;20041;-71
2021/06/24 12:26:12;;;;;;;8.50;6.18;;;;;;;20.53;40.27;101481.31;3579301;40;20071;-71
2021/06/24 12:28:42;;;;;;;7.82;6.50;;;;;;;20.53;40.07;101490.53;3581357;40;20064;-72
2021/06/24 12:31:20;;;;;;;8.70;5.93;;;;;;;20.53;39.68;101489.66;3589799;40;20055;-72
2021/06/24 12:33:49;;;;;;;8.73;5.82;;;;;;;20.49;40.33;101486.41;3583440;40;20064;-71
2021/06/24 12:36:31;;;;;;;8.60;6.05;;;;;;;20.51;39.04;101483.41;3567861;40;20060;-72
2021/06/24 12:39:00;;;;;;;7.10;5.25;;;;;;;20.48;39.74;101479.09;3571677;40;20052;-72
2021/06/24 12:41:29;;;;;;;6.43;4.93;;;;;;;20.50;39.78;101478.94;3579378;40;20041;-72
2021/06/24 12:44:02;;;;;;;7.07;5.38;;;;;;;20.52;39.22;101483.22;3581335;40;20046;-72
2021/06/24 12:46:37;;;;;;;6.43;4.63;;;;;;;20.51;39.61;101484.28;3589086;40;20105;-73
2021/06/24 12:49:15;;;;;;;6.60;5.20;;;;;;;20.53;39.19;101478.53;3586954;40;20130;-73
2021/06/24 12:51:45;;;;;;;7.63;5.55;;;;;;;20.51;39.75;101477.84;3578519;40;20453;-73
2021/06/24 12:54:18;;;;;;;8.65;6.53;;;;;;;20.55;39.79;101477.31;3578997;40;20049;-73
2021/06/24 12:56:48;;;;;;;8.75;6.07;;;;;;;20.55;40.26;101476.44;3578977;40;20092;-73